Letohatchee, Alabama
Current Conditions -  °F | °C
As of 4:53 PM on Tuesday 25 Nov 2014 (Local Time) from KMGM Reporting Station
Broken Clouds Broken Clouds  
Wind Chill: 57°   Ceiling: 12000
Heat Index: 57°   Visibility: 10mi
Dew Point: 34°   Wind: 3mph
Humidity: 42%   Direction: 300°WNW
Pressure: 30.07"   Gusts: NA
Location:  32.13°N, 86.49°W
Report Text: KMGM 252253Z 30003KT 10SM BKN120 14/01 A3007 RMK AO2 SLP180 T01390011
Loading
Personal Weather Stations






























Interactive Weather Map New forecast layout! Learn more

10-Day Weather Forecast

Advertisements
Track Severe Weather on mobile